Time;durP1;ratioP1;P1;durP2;ratioP2;P2;SDS_P1;SDS_P2;PMS_P1;PMS_P2;Temp;Humidity;BMP_temperature;BMP_pressure;BME280_temperature;BME280_humidity;BME280_pressure;Samples;Min_cycle;Max_cycle;Signal;HPM_P1;HPM_P2
2023/06/21 00:01:40;;;;;;;17.70;14.75;;;;;;;;;;4928380;28;20039;-86
2023/06/21 00:04:25;;;;;;;18.30;15.30;;;;;;;;;;4929085;28;20047;-86
2023/06/21 00:07:11;;;;;;;19.85;15.50;;;;;;;;;;4929768;28;20059;-85
2023/06/21 00:09:56;;;;;;;18.85;15.20;;;;;;;;;;4929585;28;20477;-86
2023/06/21 00:12:42;;;;;;;20.73;15.43;;;;;;;;;;4928496;28;20472;-85
2023/06/21 00:15:27;;;;;;;20.63;15.65;;;;;;;;;;4928371;28;20063;-86
2023/06/21 00:18:13;;;;;;;23.30;17.98;;;;;;;;;;4929686;28;20048;-85
2023/06/21 00:20:59;;;;;;;21.15;17.23;;;;;;;;;;4942483;28;20416;-86
2023/06/21 00:23:45;;;;;;;23.58;18.00;;;;;;;;;;4935472;29;20043;-85
2023/06/21 00:26:31;;;;;;;23.85;17.23;;;;;;;;;;4931033;28;20051;-85
2023/06/21 00:29:16;;;;;;;23.75;17.27;;;;;;;;;;4927782;28;20051;-85
2023/06/21 00:32:02;;;;;;;21.88;17.33;;;;;;;;;;4928222;28;20055;-86
2023/06/21 00:34:47;;;;;;;20.80;16.60;;;;;;;;;;4931521;28;20039;-85
2023/06/21 00:37:33;;;;;;;17.50;15.32;;;;;;;;;;4924259;28;20055;-87
2023/06/21 00:40:22;;;;;;;17.02;14.75;;;;;;;;;;4929800;28;20039;-86
2023/06/21 00:43:07;;;;;;;22.20;15.75;;;;;;;;;;4941226;28;20047;-85
2023/06/21 00:45:54;;;;;;;19.27;15.02;;;;;;;;;;4928301;28;20043;-85
2023/06/21 00:48:43;;;;;;;24.17;15.35;;;;;;;;;;4928244;28;20063;-86
2023/06/21 00:51:32;;;;;;;19.77;14.30;;;;;;;;;;4942630;28;20047;-86
2023/06/21 00:54:20;;;;;;;22.67;15.23;;;;;;;;;;4931684;28;20055;-86
2023/06/21 00:57:07;;;;;;;17.98;14.27;;;;;;;;;;4928259;28;20404;-86
2023/06/21 00:59:56;;;;;;;18.73;14.70;;;;;;;;;;4927540;28;20468;-87
2023/06/21 01:02:43;;;;;;;18.63;14.05;;;;;;;;;;4927839;28;20051;-86
2023/06/21 01:05:34;;;;;;;17.15;14.70;;;;;;;;;;4927280;28;20047;-87
2023/06/21 01:08:34;;;;;;;19.10;13.63;;;;;;;;;;4928059;28;20044;-87
2023/06/21 01:11:27;;;;;;;19.48;14.48;;;;;;;;;;4929653;29;20039;-87
2023/06/21 01:14:28;;;;;;;17.37;14.50;;;;;;;;;;4915515;29;20044;-87
2023/06/21 01:17:15;;;;;;;17.38;14.50;;;;;;;;;;4927527;29;20274;-86
2023/06/21 01:20:13;;;;;;;17.23;13.85;;;;;;;;;;4927636;29;20413;-86
2023/06/21 01:23:18;;;;;;;15.65;13.70;;;;;;;;;;4928347;29;20039;-87
2023/06/21 01:26:32;;;;;;;20.00;13.77;;;;;;;;;;4928049;29;20047;-88
2023/06/21 01:29:30;;;;;;;17.13;14.27;;;;;;;;;;4931667;28;20048;-87
2023/06/21 01:32:17;;;;;;;17.95;14.10;;;;;;;;;;4933406;28;20481;-86
2023/06/21 01:35:04;;;;;;;18.75;15.25;;;;;;;;;;4931179;28;20055;-86
2023/06/21 01:37:52;;;;;;;19.75;15.40;;;;;;;;;;4931981;28;20496;-87
2023/06/21 01:40:39;;;;;;;22.52;15.18;;;;;;;;;;4931332;28;20043;-86
2023/06/21 01:43:25;;;;;;;22.35;15.60;;;;;;;;;;4922798;28;20039;-86
2023/06/21 01:46:13;;;;;;;21.63;15.10;;;;;;;;;;4934297;28;20497;-87
2023/06/21 01:49:03;;;;;;;18.65;14.93;;;;;;;;;;4939464;28;20056;-86
2023/06/21 01:51:50;;;;;;;21.17;14.90;;;;;;;;;;4942200;28;20043;-87
2023/06/21 01:54:41;;;;;;;17.75;15.75;;;;;;;;;;4924764;28;20043;-87
2023/06/21 01:57:28;;;;;;;17.17;14.60;;;;;;;;;;4933377;28;20039;-87
2023/06/21 02:00:17;;;;;;;20.85;15.90;;;;;;;;;;4933971;28;20055;-88
2023/06/21 02:03:09;;;;;;;16.67;14.82;;;;;;;;;;4931896;28;20040;-87
2023/06/21 02:05:57;;;;;;;18.67;15.85;;;;;;;;;;4944149;28;20043;-87
2023/06/21 02:08:44;;;;;;;19.30;15.27;;;;;;;;;;4944512;28;20059;-87
2023/06/21 02:11:30;;;;;;;17.35;15.13;;;;;;;;;;4914351;28;20040;-87
2023/06/21 02:14:17;;;;;;;25.33;15.30;;;;;;;;;;4932631;28;20043;-86
2023/06/21 02:17:04;;;;;;;16.17;13.88;;;;;;;;;;4930895;28;20060;-87
2023/06/21 02:19:50;;;;;;;19.27;14.98;;;;;;;;;;4934371;28;20043;-86
2023/06/21 02:22:35;;;;;;;20.75;15.00;;;;;;;;;;4934965;28;20048;-86
2023/06/21 02:25:24;;;;;;;23.30;15.32;;;;;;;;;;4932555;28;20488;-86
2023/06/21 02:28:09;;;;;;;19.80;15.30;;;;;;;;;;4931826;28;20051;-86
2023/06/21 02:30:55;;;;;;;19.08;14.65;;;;;;;;;;4944459;28;20051;-85
2023/06/21 02:33:48;;;;;;;26.35;15.20;;;;;;;;;;4931018;28;20059;-84
2023/06/21 02:36:36;;;;;;;20.65;14.95;;;;;;;;;;4938564;28;20047;-84
2023/06/21 02:39:22;;;;;;;17.67;14.48;;;;;;;;;;4921212;28;20051;-86
2023/06/21 02:42:08;;;;;;;18.75;14.70;;;;;;;;;;4934724;28;20055;-87
2023/06/21 02:44:53;;;;;;;19.88;14.57;;;;;;;;;;4934472;28;20052;-88
2023/06/21 02:47:39;;;;;;;16.70;14.68;;;;;;;;;;4930727;28;20047;-86
2023/06/21 02:50:25;;;;;;;22.23;15.32;;;;;;;;;;4932467;28;20043;-86
2023/06/21 02:53:11;;;;;;;19.30;14.88;;;;;;;;;;4923544;29;20063;-86
2023/06/21 02:55:58;;;;;;;19.05;14.35;;;;;;;;;;4930495;28;20072;-85
2023/06/21 02:58:43;;;;;;;17.40;14.52;;;;;;;;;;4929480;28;20496;-86
2023/06/21 03:01:30;;;;;;;18.27;14.55;;;;;;;;;;4930402;28;20480;-86
2023/06/21 03:04:16;;;;;;;19.20;14.88;;;;;;;;;;4929461;28;20059;-86
2023/06/21 03:07:01;;;;;;;22.40;15.25;;;;;;;;;;4943621;28;20047;-86
2023/06/21 03:09:47;;;;;;;21.00;15.30;;;;;;;;;;4932726;28;20051;-87
2023/06/21 03:12:32;;;;;;;20.45;15.93;;;;;;;;;;4929944;28;20040;-86
2023/06/21 03:15:18;;;;;;;22.65;15.65;;;;;;;;;;4931407;28;20039;-86
2023/06/21 03:18:05;;;;;;;21.75;15.73;;;;;;;;;;4930142;28;20044;-86
2023/06/21 03:20:50;;;;;;;20.35;16.05;;;;;;;;;;4932129;28;20040;-87
2023/06/21 03:23:36;;;;;;;19.60;15.50;;;;;;;;;;4924203;28;20404;-87
2023/06/21 03:26:22;;;;;;;18.95;14.10;;;;;;;;;;4932648;28;20039;-86
2023/06/21 03:29:08;;;;;;;15.57;13.98;;;;;;;;;;4932761;28;20055;-87
2023/06/21 03:31:54;;;;;;;17.95;13.70;;;;;;;;;;4929152;28;20477;-86
2023/06/21 03:34:41;;;;;;;19.98;13.52;;;;;;;;;;4929179;28;20051;-86
2023/06/21 03:37:27;;;;;;;18.60;13.95;;;;;;;;;;4929526;28;20047;-86
2023/06/21 03:40:13;;;;;;;16.98;13.68;;;;;;;;;;4930908;28;20055;-85
2023/06/21 03:43:00;;;;;;;18.20;13.85;;;;;;;;;;4929652;28;20051;-86
2023/06/21 03:45:47;;;;;;;18.30;12.77;;;;;;;;;;4929310;28;20055;-86
2023/06/21 03:48:32;;;;;;;15.32;12.90;;;;;;;;;;4920141;28;20043;-87
2023/06/21 03:51:18;;;;;;;16.63;12.38;;;;;;;;;;4928903;28;20055;-86
2023/06/21 03:54:05;;;;;;;14.68;13.02;;;;;;;;;;4945376;28;20047;-87
2023/06/21 03:56:50;;;;;;;14.75;12.45;;;;;;;;;;4932105;28;20043;-86
2023/06/21 03:59:37;;;;;;;15.52;12.77;;;;;;;;;;4932120;28;20043;-86
2023/06/21 04:02:22;;;;;;;18.63;12.40;;;;;;;;;;4931960;28;20047;-87
2023/06/21 04:05:10;;;;;;;18.40;13.40;;;;;;;;;;4931512;28;20055;-87
2023/06/21 04:07:56;;;;;;;18.25;13.82;;;;;;;;;;4931544;28;20496;-87
2023/06/21 04:10:41;;;;;;;16.85;12.88;;;;;;;;;;4932080;28;20039;-86
2023/06/21 04:13:27;;;;;;;19.35;12.93;;;;;;;;;;4932489;28;20039;-87
2023/06/21 04:16:12;;;;;;;19.75;13.38;;;;;;;;;;4933514;28;20488;-87
2023/06/21 04:18:58;;;;;;;18.63;13.13;;;;;;;;;;4930913;28;20051;-86
2023/06/21 04:21:44;;;;;;;19.73;12.75;;;;;;;;;;4931479;28;20417;-87
2023/06/21 04:24:31;;;;;;;17.02;12.43;;;;;;;;;;4931931;28;20047;-86
2023/06/21 04:31:55;;;;;;;14.73;12.57;;;;;;;;;;4876242;29;20049;-89
2023/06/21 04:34:47;;;;;;;15.15;11.20;;;;;;;;;;4912505;29;20039;-87
2023/06/21 04:37:33;;;;;;;17.67;11.70;;;;;;;;;;4931899;28;20496;-87
2023/06/21 04:40:21;;;;;;;18.15;12.93;;;;;;;;;;4944379;28;20043;-87
2023/06/21 04:43:07;;;;;;;15.88;12.15;;;;;;;;;;4929137;28;20058;-86
2023/06/21 04:45:54;;;;;;;17.52;12.45;;;;;;;;;;4930982;28;20051;-86
2023/06/21 04:48:41;;;;;;;13.88;12.05;;;;;;;;;;4930974;28;20051;-86
2023/06/21 04:51:27;;;;;;;14.35;12.85;;;;;;;;;;4943177;28;20035;-87
2023/06/21 05:40:10;;;;;;;17.15;10.32;;;;;;;;;;5664363;23;20396;-81
2023/06/21 07:46:35;;;;;;;14.40;9.88;;;;;;;;;;4937767;29;20047;-78
2023/06/21 07:49:21;;;;;;;12.23;10.00;;;;;;;;;;4944135;29;20059;-81
2023/06/21 07:52:07;;;;;;;17.27;9.75;;;;;;;;;;4945335;29;20047;-78
2023/06/21 07:54:52;;;;;;;18.77;10.23;;;;;;;;;;4944429;29;20056;-77
2023/06/21 07:57:38;;;;;;;15.88;10.23;;;;;;;;;;4937555;29;20048;-78
2023/06/21 08:00:24;;;;;;;14.93;10.77;;;;;;;;;;4942259;29;20044;-78
2023/06/21 08:03:09;;;;;;;11.60;9.40;;;;;;;;;;4944196;29;20044;-80
2023/06/21 08:05:54;;;;;;;11.07;9.00;;;;;;;;;;4937847;29;20055;-80
2023/06/21 08:08:40;;;;;;;10.68;9.43;;;;;;;;;;4933975;29;20047;-79
2023/06/21 08:11:26;;;;;;;10.98;9.07;;;;;;;;;;4939211;29;20060;-77
2023/06/21 08:14:11;;;;;;;14.38;9.40;;;;;;;;;;4933516;29;20389;-76
2023/06/21 08:16:57;;;;;;;13.15;9.80;;;;;;;;;;4933152;29;20486;-76
2023/06/21 08:19:42;;;;;;;10.52;9.20;;;;;;;;;;4939729;29;20059;-77
2023/06/21 08:22:28;;;;;;;15.60;9.70;;;;;;;;;;4924995;29;20059;-78
2023/06/21 08:25:14;;;;;;;14.88;10.18;;;;;;;;;;4933709;29;20482;-76
2023/06/21 08:27:59;;;;;;;14.57;10.25;;;;;;;;;;4940462;29;20059;-76
2023/06/21 08:30:45;;;;;;;12.27;10.18;;;;;;;;;;4933345;29;20044;-78
2023/06/21 08:33:31;;;;;;;15.38;9.88;;;;;;;;;;4939304;29;20055;-76
2023/06/21 08:36:16;;;;;;;16.80;10.15;;;;;;;;;;4931468;29;20056;-76
2023/06/21 08:39:01;;;;;;;11.95;10.50;;;;;;;;;;4939194;29;20051;-76
2023/06/21 08:41:48;;;;;;;14.60;10.40;;;;;;;;;;4935336;29;20051;-77
2023/06/21 08:44:32;;;;;;;13.05;9.43;;;;;;;;;;4947178;29;20051;-78
2023/06/21 08:47:21;;;;;;;10.65;9.55;;;;;;;;;;4956043;29;20043;-78
2023/06/21 08:50:07;;;;;;;15.23;9.85;;;;;;;;;;4963072;28;20055;-75
2023/06/21 08:52:54;;;;;;;15.02;9.75;;;;;;;;;;4963428;28;20047;-76
2023/06/21 08:55:41;;;;;;;12.43;9.10;;;;;;;;;;4956022;29;20047;-77
2023/06/21 08:58:30;;;;;;;12.75;9.02;;;;;;;;;;4956826;29;20043;-78
2023/06/21 09:01:21;;;;;;;11.60;9.10;;;;;;;;;;4965471;28;20051;-81
2023/06/21 09:04:09;;;;;;;25.17;12.38;;;;;;;;;;4957664;29;20047;-77
2023/06/21 09:06:55;;;;;;;14.88;10.13;;;;;;;;;;4955792;29;20043;-77
2023/06/21 09:09:43;;;;;;;12.35;9.55;;;;;;;;;;4955291;29;20055;-78
2023/06/21 09:12:31;;;;;;;16.40;9.45;;;;;;;;;;4955654;28;20047;-76
2023/06/21 09:15:17;;;;;;;12.52;10.02;;;;;;;;;;4955563;29;20051;-76
2023/06/21 09:18:02;;;;;;;11.57;9.00;;;;;;;;;;4947669;29;20051;-78
2023/06/21 09:20:49;;;;;;;11.25;8.68;;;;;;;;;;4955445;29;20405;-78
2023/06/21 09:23:36;;;;;;;11.07;8.85;;;;;;;;;;4963184;28;20043;-82
2023/06/21 09:26:22;;;;;;;12.48;8.77;;;;;;;;;;4961720;29;20047;-81
2023/06/21 09:29:07;;;;;;;15.00;9.23;;;;;;;;;;4961963;28;20051;-81
2023/06/21 09:31:52;;;;;;;15.15;8.57;;;;;;;;;;4955341;29;20055;-77
2023/06/21 09:34:38;;;;;;;9.95;8.32;;;;;;;;;;4961814;29;20047;-80
2023/06/21 09:37:35;;;;;;;10.30;8.90;;;;;;;;;;4961824;29;20043;-77
2023/06/21 09:40:20;;;;;;;10.80;8.32;;;;;;;;;;4954991;29;20055;-77
2023/06/21 09:43:06;;;;;;;12.65;8.50;;;;;;;;;;4955870;29;20047;-77
2023/06/21 09:46:07;;;;;;;12.13;8.25;;;;;;;;;;4955197;29;20433;-76
2023/06/21 09:48:52;;;;;;;13.07;7.72;;;;;;;;;;4963488;28;20051;-76
2023/06/21 09:51:43;;;;;;;9.18;7.78;;;;;;;;;;4959753;29;20043;-78
2023/06/21 09:54:41;;;;;;;8.93;7.90;;;;;;;;;;4959013;29;20044;-78
2023/06/21 09:57:30;;;;;;;11.63;7.38;;;;;;;;;;4965871;28;20051;-77
2023/06/21 10:00:16;;;;;;;12.38;7.95;;;;;;;;;;4959383;29;20039;-77
2023/06/21 10:03:03;;;;;;;13.25;8.38;;;;;;;;;;4958861;29;20047;-76
2023/06/21 10:06:07;;;;;;;8.93;7.60;;;;;;;;;;4965269;28;20040;-77
2023/06/21 10:08:54;;;;;;;12.98;8.00;;;;;;;;;;4965287;28;20047;-77
2023/06/21 10:11:43;;;;;;;9.88;7.10;;;;;;;;;;4959439;29;20051;-79
2023/06/21 10:14:30;;;;;;;9.80;7.70;;;;;;;;;;4965118;28;20047;-76
2023/06/21 10:17:15;;;;;;;9.57;7.80;;;;;;;;;;4965223;28;20146;-77
2023/06/21 10:20:02;;;;;;;11.32;7.05;;;;;;;;;;4958485;29;20051;-78
2023/06/21 10:22:52;;;;;;;7.97;7.05;;;;;;;;;;4965609;28;20047;-77
2023/06/21 10:25:40;;;;;;;8.43;6.70;;;;;;;;;;4959014;29;20050;-76
2023/06/21 10:28:28;;;;;;;12.27;6.70;;;;;;;;;;4967360;28;20043;-77
2023/06/21 10:31:13;;;;;;;10.30;6.20;;;;;;;;;;4958685;29;20043;-79
2023/06/21 10:34:02;;;;;;;7.68;6.03;;;;;;;;;;4958993;29;20385;-76
2023/06/21 10:36:54;;;;;;;10.80;6.00;;;;;;;;;;4965575;28;20047;-77
2023/06/21 10:39:41;;;;;;;7.07;5.30;;;;;;;;;;4964396;28;20051;-78
2023/06/21 10:42:27;;;;;;;9.77;6.30;;;;;;;;;;4958073;29;20055;-76
2023/06/21 10:45:13;;;;;;;10.10;7.10;;;;;;;;;;4957815;29;20051;-77
2023/06/21 10:47:59;;;;;;;11.30;6.43;;;;;;;;;;4964743;28;20040;-77
2023/06/21 10:50:45;;;;;;;10.88;6.82;;;;;;;;;;4957491;29;20047;-79
2023/06/21 10:53:33;;;;;;;7.25;6.20;;;;;;;;;;4956829;29;20497;-79
2023/06/21 10:56:19;;;;;;;12.18;6.15;;;;;;;;;;4942361;29;20043;-79
2023/06/21 10:59:03;;;;;;;8.70;6.05;;;;;;;;;;4962499;28;20405;-78
2023/06/21 11:01:50;;;;;;;10.15;6.57;;;;;;;;;;4956411;29;20047;-79
2023/06/21 11:05:13;;;;;;;12.45;6.70;;;;;;;;;;4957162;28;20047;-78
2023/06/21 11:08:01;;;;;;;12.90;6.40;;;;;;;;;;4956477;29;20051;-77
2023/06/21 11:10:49;;;;;;;7.32;6.60;;;;;;;;;;4962503;28;20043;-78
2023/06/21 11:13:40;;;;;;;11.77;6.97;;;;;;;;;;4956399;29;20047;-77
2023/06/21 11:16:29;;;;;;;10.48;7.05;;;;;;;;;;4956593;29;20051;-78
2023/06/21 11:19:15;;;;;;;9.82;6.40;;;;;;;;;;4956143;29;20055;-76
2023/06/21 11:22:14;;;;;;;10.88;6.97;;;;;;;;;;4956471;29;20043;-77
2023/06/21 11:25:15;;;;;;;13.82;6.50;;;;;;;;;;4941787;29;20047;-80
2023/06/21 11:28:19;;;;;;;9.13;6.60;;;;;;;;;;4962588;28;20564;-77
2023/06/21 11:31:12;;;;;;;8.43;6.40;;;;;;;;;;4956180;29;20059;-77
2023/06/21 11:33:59;;;;;;;11.60;6.38;;;;;;;;;;4955937;29;20039;-78
2023/06/21 11:36:45;;;;;;;13.27;6.95;;;;;;;;;;4962440;28;20046;-79
2023/06/21 11:39:30;;;;;;;9.95;6.82;;;;;;;;;;4956081;29;20044;-76
2023/06/21 11:42:16;;;;;;;10.02;6.88;;;;;;;;;;4955862;29;20493;-77
2023/06/21 11:45:21;;;;;;;9.73;7.15;;;;;;;;;;4943970;29;20039;-78
2023/06/21 11:48:08;;;;;;;7.20;6.43;;;;;;;;;;4955745;29;20058;-79
2023/06/21 11:51:07;;;;;;;8.13;5.75;;;;;;;;;;4955894;29;20408;-78
2023/06/21 11:53:52;;;;;;;9.02;6.53;;;;;;;;;;4955529;29;20492;-76
2023/06/21 11:56:43;;;;;;;8.20;7.40;;;;;;;;;;4956627;28;20461;-77
2023/06/21 11:59:27;;;;;;;9.27;7.43;;;;;;;;;;4961746;28;20047;-76
2023/06/21 12:02:22;;;;;;;10.90;7.25;;;;;;;;;;4955723;29;20043;-78
2023/06/21 12:05:08;;;;;;;9.27;6.88;;;;;;;;;;4947677;28;20043;-76
2023/06/21 12:07:53;;;;;;;11.00;7.00;;;;;;;;;;4961745;28;20409;-79
2023/06/21 12:10:39;;;;;;;11.77;7.80;;;;;;;;;;4955521;28;20055;-78
2023/06/21 12:13:25;;;;;;;10.45;7.15;;;;;;;;;;4961899;28;20397;-77
2023/06/21 12:16:10;;;;;;;8.27;7.38;;;;;;;;;;4956307;29;20051;-77
2023/06/21 12:18:56;;;;;;;10.07;7.78;;;;;;;;;;4956314;29;20051;-78
2023/06/21 12:21:42;;;;;;;10.30;7.40;;;;;;;;;;4962861;28;20039;-79
2023/06/21 12:24:29;;;;;;;12.32;7.72;;;;;;;;;;4956304;29;20039;-77
2023/06/21 12:27:17;;;;;;;10.98;7.32;;;;;;;;;;4956685;29;20051;-84
2023/06/21 12:30:03;;;;;;;10.68;7.53;;;;;;;;;;4934816;28;20055;-77
2023/06/21 12:32:49;;;;;;;11.23;7.47;;;;;;;;;;4962578;28;20089;-77
2023/06/21 12:35:37;;;;;;;12.00;7.65;;;;;;;;;;4956522;29;20043;-77
2023/06/21 12:38:24;;;;;;;8.05;7.20;;;;;;;;;;4956293;29;20039;-76
2023/06/21 12:41:09;;;;;;;11.23;7.70;;;;;;;;;;4956382;29;20047;-76
2023/06/21 12:43:59;;;;;;;8.75;7.82;;;;;;;;;;4955425;29;20043;-77
2023/06/21 12:46:45;;;;;;;9.20;6.90;;;;;;;;;;4962666;28;20055;-76
2023/06/21 12:49:30;;;;;;;9.38;8.00;;;;;;;;;;4962489;28;20051;-78
2023/06/21 12:52:25;;;;;;;10.68;7.32;;;;;;;;;;4962078;28;20497;-76
2023/06/21 12:55:15;;;;;;;11.50;7.35;;;;;;;;;;4962003;28;20054;-78
2023/06/21 12:58:00;;;;;;;9.57;7.22;;;;;;;;;;4956683;29;20039;-78
2023/06/21 13:00:47;;;;;;;11.20;7.47;;;;;;;;;;4955536;29;20533;-78
2023/06/21 13:03:32;;;;;;;8.25;7.32;;;;;;;;;;4955584;29;20047;-78
2023/06/21 13:06:18;;;;;;;8.70;7.28;;;;;;;;;;4956440;29;20047;-77
2023/06/21 13:09:04;;;;;;;12.88;7.65;;;;;;;;;;4955326;29;20039;-77
2023/06/21 13:11:51;;;;;;;11.18;7.57;;;;;;;;;;4955582;29;20051;-76
2023/06/21 13:14:36;;;;;;;11.50;7.13;;;;;;;;;;4955874;29;20047;-78
2023/06/21 13:17:23;;;;;;;12.15;7.32;;;;;;;;;;4955644;29;20047;-84
2023/06/21 13:20:10;;;;;;;13.02;7.75;;;;;;;;;;4958404;29;20055;-82
2023/06/21 13:22:56;;;;;;;8.13;7.22;;;;;;;;;;4956926;28;20059;-81
2023/06/21 13:25:42;;;;;;;9.50;7.40;;;;;;;;;;4960365;29;20485;-80
2023/06/21 13:28:27;;;;;;;15.23;7.65;;;;;;;;;;4961577;29;20055;-83
2023/06/21 13:31:13;;;;;;;18.42;7.82;;;;;;;;;;4967486;28;20487;-83
2023/06/21 13:33:58;;;;;;;11.02;6.82;;;;;;;;;;4964730;29;20047;-83
2023/06/21 13:36:44;;;;;;;12.20;7.03;;;;;;;;;;4974810;29;20043;-84
2023/06/21 13:39:29;;;;;;;9.75;6.95;;;;;;;;;;4968701;29;20425;-81
2023/06/21 13:42:15;;;;;;;11.60;7.55;;;;;;;;;;4965878;28;20039;-83
2023/06/21 13:45:02;;;;;;;12.60;7.35;;;;;;;;;;4962209;28;20047;-83
2023/06/21 13:47:48;;;;;;;9.65;7.47;;;;;;;;;;4962779;29;20393;-83
2023/06/21 13:50:33;;;;;;;8.93;7.32;;;;;;;;;;4953387;28;20051;-85
2023/06/21 13:53:19;;;;;;;9.13;7.63;;;;;;;;;;4965014;28;20039;-79
2023/06/21 13:56:06;;;;;;;11.45;7.57;;;;;;;;;;4944898;29;20051;-78
2023/06/21 13:58:51;;;;;;;9.57;7.18;;;;;;;;;;4958859;29;20043;-78
2023/06/21 14:01:38;;;;;;;8.65;6.60;;;;;;;;;;4960496;29;20413;-78
2023/06/21 14:04:27;;;;;;;8.68;6.63;;;;;;;;;;4968722;28;20043;-80
2023/06/21 14:07:13;;;;;;;11.90;7.40;;;;;;;;;;4966087;28;20039;-78
2023/06/21 14:10:00;;;;;;;9.82;7.35;;;;;;;;;;4959536;29;20051;-79
2023/06/21 14:12:46;;;;;;;10.45;6.88;;;;;;;;;;4966785;28;20481;-81
2023/06/21 14:15:32;;;;;;;8.23;6.70;;;;;;;;;;4965071;28;20043;-79
2023/06/21 14:18:17;;;;;;;7.15;6.18;;;;;;;;;;4964993;28;20449;-79
2023/06/21 14:21:03;;;;;;;8.82;6.28;;;;;;;;;;4958299;29;20389;-79
2023/06/21 14:23:49;;;;;;;10.38;7.13;;;;;;;;;;4958552;29;20053;-80
2023/06/21 14:26:36;;;;;;;9.98;6.53;;;;;;;;;;4959092;28;20039;-81
2023/06/21 14:29:21;;;;;;;8.55;6.30;;;;;;;;;;4965121;28;20043;-80
2023/06/21 14:32:06;;;;;;;11.40;6.72;;;;;;;;;;4958681;29;20047;-79
2023/06/21 14:34:52;;;;;;;10.73;6.22;;;;;;;;;;4957765;28;20047;-80
2023/06/21 14:37:38;;;;;;;7.93;6.63;;;;;;;;;;4958099;29;20051;-79
2023/06/21 14:40:23;;;;;;;12.00;6.93;;;;;;;;;;4957970;29;20044;-77
2023/06/21 14:43:09;;;;;;;8.13;6.70;;;;;;;;;;4958283;29;20051;-78
2023/06/21 14:45:55;;;;;;;11.02;7.15;;;;;;;;;;4944612;29;20389;-78
2023/06/21 14:48:40;;;;;;;10.90;6.50;;;;;;;;;;4964551;28;20047;-80
2023/06/21 14:51:25;;;;;;;10.63;6.78;;;;;;;;;;4964287;28;20043;-78
2023/06/21 14:54:11;;;;;;;7.80;6.60;;;;;;;;;;4965283;28;20039;-82
2023/06/21 14:56:57;;;;;;;10.98;6.68;;;;;;;;;;4959363;29;20051;-84
2023/06/21 14:59:45;;;;;;;8.15;6.28;;;;;;;;;;4974005;28;20047;-83
2023/06/21 15:02:31;;;;;;;13.55;6.22;;;;;;;;;;4967702;29;20047;-82
2023/06/21 15:05:17;;;;;;;10.80;6.32;;;;;;;;;;4961055;29;20051;-82
2023/06/21 15:08:02;;;;;;;7.75;6.38;;;;;;;;;;4961042;29;20099;-82
2023/06/21 15:10:48;;;;;;;10.27;6.55;;;;;;;;;;4960546;29;20051;-82
2023/06/21 15:13:35;;;;;;;8.13;6.60;;;;;;;;;;4961117;29;20051;-83
2023/06/21 15:16:21;;;;;;;10.68;7.03;;;;;;;;;;4960624;29;20047;-82
2023/06/21 15:19:06;;;;;;;8.07;6.22;;;;;;;;;;4961088;29;20051;-79
2023/06/21 15:21:52;;;;;;;8.82;6.63;;;;;;;;;;4968485;28;20047;-81
2023/06/21 15:24:38;;;;;;;12.85;7.10;;;;;;;;;;4935039;29;20052;-76
2023/06/21 15:27:23;;;;;;;9.25;6.82;;;;;;;;;;4950582;28;20039;-78
2023/06/21 15:30:10;;;;;;;12.45;6.80;;;;;;;;;;4965429;28;20043;-80
2023/06/21 15:32:55;;;;;;;12.02;6.47;;;;;;;;;;4965639;28;20043;-77
2023/06/21 15:35:41;;;;;;;8.02;6.30;;;;;;;;;;4957554;29;20429;-77
2023/06/21 15:38:26;;;;;;;7.05;6.35;;;;;;;;;;4959193;29;20060;-80
2023/06/21 15:41:12;;;;;;;8.30;6.90;;;;;;;;;;4957478;29;20039;-78
2023/06/21 15:43:58;;;;;;;9.55;6.50;;;;;;;;;;4960078;29;20043;-82
2023/06/21 15:46:45;;;;;;;7.00;6.15;;;;;;;;;;4958786;28;20047;-80
2023/06/21 15:49:31;;;;;;;8.25;6.55;;;;;;;;;;4966341;28;20485;-82
2023/06/21 15:52:16;;;;;;;9.13;7.07;;;;;;;;;;4965185;29;20051;-81
2023/06/21 15:55:03;;;;;;;8.98;6.82;;;;;;;;;;4958622;29;20043;-83
2023/06/21 15:57:48;;;;;;;8.32;6.90;;;;;;;;;;4960484;29;20055;-82
2023/06/21 16:00:34;;;;;;;10.48;6.65;;;;;;;;;;4968511;28;20043;-82
2023/06/21 16:03:20;;;;;;;7.43;6.65;;;;;;;;;;4956336;29;20047;-77
2023/06/21 16:06:05;;;;;;;10.73;6.82;;;;;;;;;;4962525;28;20043;-77
2023/06/21 16:08:51;;;;;;;8.07;6.80;;;;;;;;;;4956224;29;20485;-77
2023/06/21 16:11:36;;;;;;;9.80;7.22;;;;;;;;;;4962351;28;20048;-76
2023/06/21 16:14:22;;;;;;;13.73;6.97;;;;;;;;;;4956382;29;20043;-77
2023/06/21 16:17:08;;;;;;;8.38;7.13;;;;;;;;;;4942214;29;20047;-77
2023/06/21 16:19:53;;;;;;;9.43;6.80;;;;;;;;;;4962588;28;20040;-78
2023/06/21 16:22:39;;;;;;;7.72;6.95;;;;;;;;;;4956916;29;20051;-80
2023/06/21 16:25:24;;;;;;;13.38;7.47;;;;;;;;;;4956651;29;20044;-78
2023/06/21 16:28:10;;;;;;;10.02;7.45;;;;;;;;;;4962818;28;20051;-77
2023/06/21 16:30:55;;;;;;;9.02;7.05;;;;;;;;;;4955211;29;20158;-78
2023/06/21 16:33:41;;;;;;;9.68;6.80;;;;;;;;;;4961062;28;20481;-76
2023/06/21 16:36:26;;;;;;;12.10;6.75;;;;;;;;;;4941767;29;20088;-77
2023/06/21 16:39:13;;;;;;;7.65;6.50;;;;;;;;;;4947190;28;20047;-77
2023/06/21 16:41:58;;;;;;;8.55;6.88;;;;;;;;;;4956283;29;20051;-80
2023/06/21 16:44:43;;;;;;;10.70;7.00;;;;;;;;;;4961757;28;20479;-82
2023/06/21 16:47:29;;;;;;;9.93;7.60;;;;;;;;;;4966571;28;20047;-81
2023/06/21 16:50:16;;;;;;;12.63;7.07;;;;;;;;;;4956322;29;20055;-83
2023/06/21 16:53:01;;;;;;;10.95;7.53;;;;;;;;;;4960060;29;20055;-82
2023/06/21 16:55:48;;;;;;;11.63;7.10;;;;;;;;;;4969741;28;20083;-80
2023/06/21 16:58:34;;;;;;;10.50;6.70;;;;;;;;;;4956203;28;20047;-80
2023/06/21 17:01:22;;;;;;;11.13;7.38;;;;;;;;;;4961858;28;20051;-78
2023/06/21 17:04:08;;;;;;;11.15;7.40;;;;;;;;;;4955907;29;20055;-79
2023/06/21 17:06:53;;;;;;;8.15;7.20;;;;;;;;;;4962163;28;20047;-78
2023/06/21 17:09:40;;;;;;;8.93;7.28;;;;;;;;;;4941070;29;20047;-78
2023/06/21 17:12:25;;;;;;;9.35;6.88;;;;;;;;;;4955875;29;20043;-79
2023/06/21 17:15:11;;;;;;;8.55;7.10;;;;;;;;;;4961568;28;20035;-79
2023/06/21 17:17:56;;;;;;;9.95;7.35;;;;;;;;;;4947182;29;20051;-79
2023/06/21 17:20:42;;;;;;;11.27;8.25;;;;;;;;;;4955432;29;20043;-78
2023/06/21 17:23:28;;;;;;;9.98;7.72;;;;;;;;;;4963034;28;20498;-82
2023/06/21 17:26:13;;;;;;;10.60;7.57;;;;;;;;;;4963320;29;20051;-82
2023/06/21 17:28:59;;;;;;;9.80;7.63;;;;;;;;;;4962453;29;20051;-78
2023/06/21 17:31:44;;;;;;;11.55;8.02;;;;;;;;;;4948444;29;20047;-78
2023/06/21 17:34:30;;;;;;;12.23;8.73;;;;;;;;;;4955960;29;20043;-78
2023/06/21 17:37:16;;;;;;;9.60;8.07;;;;;;;;;;4955006;29;20039;-78
2023/06/21 17:40:02;;;;;;;14.10;8.60;;;;;;;;;;4955020;29;20493;-77
2023/06/21 17:42:47;;;;;;;10.50;7.78;;;;;;;;;;4961680;29;20051;-76
2023/06/21 17:45:33;;;;;;;10.43;7.70;;;;;;;;;;4954972;29;20047;-78
2023/06/21 17:48:18;;;;;;;11.38;8.05;;;;;;;;;;4961588;29;20043;-76
2023/06/21 17:51:04;;;;;;;14.77;8.15;;;;;;;;;;4947397;29;20055;-78
2023/06/21 17:53:50;;;;;;;15.52;8.20;;;;;;;;;;4955546;29;20047;-77
2023/06/21 17:56:36;;;;;;;13.65;8.00;;;;;;;;;;4955821;29;20397;-77
2023/06/21 17:59:21;;;;;;;10.07;7.90;;;;;;;;;;4955517;29;20401;-77
2023/06/21 18:02:08;;;;;;;23.40;9.52;;;;;;;;;;4953025;29;20051;-77
2023/06/21 18:04:54;;;;;;;18.30;9.95;;;;;;;;;;4963313;29;20051;-79
2023/06/21 18:07:40;;;;;;;14.50;9.18;;;;;;;;;;4961526;28;20055;-76
2023/06/21 18:10:25;;;;;;;13.02;10.10;;;;;;;;;;4962644;28;20047;-76
2023/06/21 18:13:11;;;;;;;19.48;10.25;;;;;;;;;;4957924;29;20051;-76
2023/06/21 18:15:57;;;;;;;17.60;10.52;;;;;;;;;;4958523;29;20055;-79
2023/06/21 18:18:42;;;;;;;19.38;10.27;;;;;;;;;;4964598;28;20409;-78
2023/06/21 18:21:28;;;;;;;17.48;10.15;;;;;;;;;;4958194;29;20047;-78
2023/06/21 18:24:14;;;;;;;15.68;10.35;;;;;;;;;;4957243;29;20055;-76
2023/06/21 18:27:00;;;;;;;15.73;10.73;;;;;;;;;;4957492;29;20397;-79
2023/06/21 18:29:46;;;;;;;19.02;10.90;;;;;;;;;;4958131;29;20486;-79
2023/06/21 18:32:31;;;;;;;22.45;10.63;;;;;;;;;;4936434;28;20047;-77
2023/06/21 18:35:17;;;;;;;16.58;11.55;;;;;;;;;;4957863;29;20051;-75
2023/06/21 18:38:02;;;;;;;16.67;11.45;;;;;;;;;;4957520;29;20039;-77
2023/06/21 18:40:48;;;;;;;15.88;10.88;;;;;;;;;;4964187;28;20401;-77
2023/06/21 18:43:35;;;;;;;16.42;11.30;;;;;;;;;;4958096;29;20047;-77
2023/06/21 18:46:22;;;;;;;19.27;11.95;;;;;;;;;;4957178;29;20063;-75
2023/06/21 18:49:07;;;;;;;14.45;11.40;;;;;;;;;;4958022;29;20051;-76
2023/06/21 18:51:53;;;;;;;18.27;11.85;;;;;;;;;;4957718;29;20055;-77
2023/06/21 18:54:39;;;;;;;16.58;11.68;;;;;;;;;;4957468;29;20069;-78
2023/06/21 18:57:25;;;;;;;19.08;13.07;;;;;;;;;;4956751;29;20086;-78
2023/06/21 19:00:11;;;;;;;17.73;12.50;;;;;;;;;;4963578;28;20048;-78
2023/06/21 19:02:56;;;;;;;22.80;12.63;;;;;;;;;;4957915;29;20047;-83
2023/06/21 19:05:41;;;;;;;15.02;11.52;;;;;;;;;;4956504;29;20051;-82
2023/06/21 19:08:27;;;;;;;14.82;11.27;;;;;;;;;;4963105;28;20051;-82
2023/06/21 19:11:12;;;;;;;19.65;11.82;;;;;;;;;;4963274;28;20051;-81
2023/06/21 19:13:58;;;;;;;15.85;11.98;;;;;;;;;;4956482;29;20051;-81
2023/06/21 19:16:44;;;;;;;19.40;12.15;;;;;;;;;;4957429;29;20043;-81
2023/06/21 19:19:29;;;;;;;19.40;11.82;;;;;;;;;;4956669;29;20047;-85